메인 페이지
METAR-TAF:

METAR-TAF

공항 :

인디라 간디 국제공항

뉴델리, 인도

위도: 28-34N, 경도: 077-07E, 고도: 220m

현재 날씨관측

예보는 33분 전, 17:00시(UTC)에 발표되었습니다.
서북서4kt
온도 24°C
습도 74%
기압 1008 hPa
시정: 3500m
고도 3000ft 상공 구름 보통
고도 9000ft 상공 구름 많음
박무

METAR: VIDP 311700Z 29004KT 3500 BR SCT030 BKN090 24/19 Q1008 NOSIG

시각: 23:03 (17:33 UTC)

예보

예보는 3 시간 33분 전, 14:00시(UTC)에 발표되었습니다.
예보 대상 시간: 31일 15시부터 31일 24시까지 (UTC)
서남서5kt
시정: 3500m
고도 3000ft 상공 구름 보통
고도 3500ft 상공 구름 조금, 적란운.
고도 9000ft 상공 구름 많음
연무, 약한비
전환 중
31일 20시부터 31일 22시까지 (UTC)
6kt
시정: 2500m
고도 3500ft 상공 구름 조금
고도 10000ft 상공 구름 보통
연무, 박무

TAF: VIDP 311400Z 3115/3124 24005KT 3500 HZ -RA SCT030 FEW035CB BKN090 BECMG 3120/3122 27006KT 2500 HZ BR FEW035 SCT100

4,000개 이상의 공항 관측 자료 및 예보 (METAR 및 TAF 보고).

지도상에서 검색 가능한 기상관측소가 노란 점과 빨간 점으로 표시되어 있습니다.

기상관측소 명을 보려면 표시 위로 마우스를 이동하세요.

날씨 관측과 예보를 보려면 클릭하세요.

지도 변경 : 확대하려면 엑스 표시가 있는 녹색 버튼, 축소하려면 빼기 표시가 있는 녹색 버튼, 다음 페이지의 지도를 보려면 녹색 화살표를 클릭하세요.


METAR-TAF: